Time;durP1;ratioP1;P1;durP2;ratioP2;P2;SDS_P1;SDS_P2;PMS_P1;PMS_P2;Temp;Humidity;BMP_temperature;BMP_pressure;BME280_temperature;BME280_humidity;BME280_pressure;Samples;Min_cycle;Max_cycle;Signal;HPM_P1;HPM_P2
2022/10/24 00:00:15;;;;;;;29.37;12.80;;;8.40;99.90;;;;;;4916865;29;20188;-88
2022/10/24 00:02:41;;;;;;;33.73;13.53;;;;;;;;;;4916413;29;20665;-89
2022/10/24 00:05:08;;;;;;;32.70;12.30;;;;;;;;;;4916648;29;20196;-88
2022/10/24 00:07:35;;;;;;;28.60;13.97;;;;;;;;;;4915827;29;20437;-89
2022/10/24 00:10:03;;;;;;;28.83;12.07;;;8.20;99.90;;;;;;4900989;29;20239;-88
2022/10/24 00:12:30;;;;;;;32.13;12.83;;;;;;;;;;4917441;29;20184;-88
2022/10/24 00:14:56;;;;;;;30.80;13.60;;;;;;;;;;4916351;29;20184;-89
2022/10/24 00:17:30;;;;;;;20.17;11.50;;;8.10;99.90;;;;;;4917253;29;20275;-89
2022/10/24 00:19:57;;;;;;;30.13;11.57;;;;;;;;;;4916167;29;20694;-90
2022/10/24 00:22:29;;;;;;;23.97;11.40;;;8.00;99.90;;;;;;4915519;29;20224;-89
2022/10/24 00:25:01;;;;;;;18.37;10.23;;;8.00;99.90;;;;;;4916150;29;20191;-88
2022/10/24 00:27:41;;;;;;;24.90;10.77;;;8.00;99.90;;;;;;4900243;29;20192;-88
2022/10/24 00:30:08;;;;;;;22.53;10.30;;;8.00;99.90;;;;;;4916184;29;20201;-89
2022/10/24 00:32:34;;;;;;;18.93;8.80;;;;;;;;;;4900157;29;20188;-88
2022/10/24 00:35:05;;;;;;;14.53;7.67;;;;;;;;;;4915899;29;20187;-88
2022/10/24 00:37:31;;;;;;;18.20;8.30;;;;;;;;;;4901283;29;20185;-87
2022/10/24 00:40:00;;;;;;;17.00;8.20;;;8.00;99.90;;;;;;4908422;29;20192;-87
2022/10/24 00:42:29;;;;;;;13.37;8.40;;;8.00;99.90;;;;;;4923901;29;20221;-87
2022/10/24 00:44:55;;;;;;;20.63;8.10;;;;;;;;;;4903327;29;20252;-88
2022/10/24 00:47:27;;;;;;;19.67;8.50;;;8.00;99.90;;;;;;4915883;29;20284;-88
2022/10/24 00:50:14;;;;;;;17.03;8.20;;;8.00;99.90;;;;;;4915918;29;20268;-88
2022/10/24 00:52:46;;;;;;;16.90;8.30;;;7.90;99.90;;;;;;4915673;29;20214;-88
2022/10/24 00:55:17;;;;;;;18.43;8.97;;;8.00;99.90;;;;;;4899963;29;20200;-88
2022/10/24 00:57:43;;;;;;;14.77;7.97;;;;;;;;;;4915596;29;20181;-89
2022/10/24 01:00:18;;;;;;;27.13;7.63;;;8.10;99.90;;;;;;4915733;29;20192;-88
2022/10/24 01:02:47;;;;;;;15.87;7.40;;;8.00;99.90;;;;;;4916525;29;20212;-89
2022/10/24 01:05:16;;;;;;;16.30;8.60;;;8.00;99.90;;;;;;4916532;29;20192;-89
2022/10/24 01:07:53;;;;;;;18.87;9.07;;;8.00;99.90;;;;;;4899719;29;20248;-88
2022/10/24 01:10:31;;;;;;;15.87;7.87;;;8.00;99.90;;;;;;4916109;29;20191;-88
2022/10/24 01:13:30;;;;;;;14.13;8.40;;;7.90;99.90;;;;;;4915890;29;20192;-88
2022/10/24 01:16:22;;;;;;;15.33;7.67;;;7.90;99.90;;;;;;4915616;29;20622;-89
2022/10/24 01:19:02;;;;;;;13.67;7.40;;;7.90;99.90;;;;;;4918166;29;20256;-88
2022/10/24 01:21:42;;;;;;;14.60;7.67;;;7.90;99.90;;;;;;4919048;29;20224;-90
2022/10/24 01:24:38;;;;;;;19.27;8.63;;;9.30;99.90;;;;;;4919225;29;20184;-89
2022/10/24 01:27:10;;;;;;;20.30;8.90;;;8.40;99.90;;;;;;4919284;29;20195;-89
2022/10/24 01:30:13;;;;;;;14.50;9.00;;;7.90;99.90;;;;;;4920658;29;20693;-89
2022/10/24 01:33:00;;;;;;;18.67;9.57;;;8.30;99.90;;;;;;4919076;29;20193;-87
2022/10/24 01:35:29;;;;;;;21.63;7.23;;;;;;;;;;4920197;29;20189;-89
2022/10/24 01:38:12;;;;;;;15.43;7.73;;;7.90;99.90;;;;;;4919982;29;20192;-89
2022/10/24 01:41:26;;;;;;;14.17;7.30;;;7.90;99.90;;;;;;4918772;29;20271;-88
2022/10/24 01:44:25;;;;;;;24.93;8.30;;;7.90;99.90;;;;;;4914389;29;20294;-88
2022/10/24 01:47:03;;;;;;;13.90;7.37;;;7.80;99.90;;;;;;4918609;29;20260;-88
2022/10/24 01:49:34;;;;;;;14.63;9.30;;;7.90;99.90;;;;;;4918780;29;20266;-88
2022/10/24 01:52:05;;;;;;;18.60;8.23;;;7.90;99.90;;;;;;4903558;29;20222;-88
2022/10/24 01:54:36;;;;;;;15.80;7.67;;;7.90;99.90;;;;;;4918596;29;20195;-88
2022/10/24 01:57:04;;;;;;;16.53;7.50;;;;;;;;;;4918968;29;20184;-88
2022/10/24 01:59:30;;;;;;;16.00;8.43;;;8.00;99.90;;;;;;4920297;29;20259;-88
2022/10/24 02:02:10;;;;;;;23.27;9.70;;;8.00;99.90;;;;;;4919629;29;20254;-88
2022/10/24 02:04:46;;;;;;;15.53;9.07;;;8.00;99.90;;;;;;4920009;29;20547;-88
2022/10/24 02:07:18;;;;;;;16.77;8.43;;;8.00;99.90;;;;;;4905116;29;20183;-88
2022/10/24 02:09:49;;;;;;;13.93;8.33;;;8.00;99.90;;;;;;4920716;29;20179;-89
2022/10/24 02:12:17;;;;;;;15.43;9.37;;;8.00;99.90;;;;;;4932985;29;20200;-89
2022/10/24 02:14:50;;;;;;;17.67;8.73;;;7.90;99.90;;;;;;4932830;29;20212;-89
2022/10/24 02:17:19;;;;;;;20.97;9.03;;;7.90;99.90;;;;;;4916680;29;20541;-88
2022/10/24 02:19:46;;;;;;;15.87;7.87;;;;;;;;;;4916022;29;20538;-88
2022/10/24 02:22:39;;;;;;;20.33;7.50;;;7.90;99.90;;;;;;4926003;29;20216;-90
2022/10/24 02:25:16;;;;;;;14.87;7.33;;;7.90;99.90;;;;;;4918665;29;20259;-90
2022/10/24 02:28:00;;;;;;;17.30;8.83;;;7.90;99.90;;;;;;4905297;29;20187;-89
2022/10/24 02:30:29;;;;;;;17.93;8.53;;;8.00;99.90;;;;;;4918701;29;20169;-89
2022/10/24 02:32:58;;;;;;;13.97;7.47;;;7.90;99.90;;;;;;4918560;29;20192;-88
2022/10/24 02:35:34;;;;;;;18.30;7.90;;;8.00;99.90;;;;;;4920522;29;20228;-89
2022/10/24 02:38:11;;;;;;;12.80;7.00;;;8.00;99.90;;;;;;4927574;29;20177;-89
2022/10/24 02:40:37;;;;;;;17.47;8.17;;;;;;;;;;4921196;29;20188;-89
2022/10/24 02:43:07;;;;;;;16.17;6.83;;;7.90;99.90;;;;;;4928018;29;20733;-89
2022/10/24 02:45:35;;;;;;;14.43;7.43;;;7.90;99.90;;;;;;4913602;29;20320;-89
2022/10/24 02:48:06;;;;;;;15.20;7.20;;;7.90;99.90;;;;;;4934038;29;20770;-89
2022/10/24 02:50:39;;;;;;;15.93;8.07;;;7.90;99.90;;;;;;4918868;29;20220;-88
2022/10/24 02:53:05;;;;;;;16.17;8.57;;;;;;;;;;4925975;29;20176;-89
2022/10/24 02:55:31;;;;;;;18.13;9.10;;;;;;;;;;4925963;29;20226;-88
2022/10/24 02:57:57;;;;;;;14.40;7.77;;;;;;;;;;4941413;29;20185;-88
2022/10/24 03:00:24;;;;;;;23.17;8.67;;;;;;;;;;4941362;29;20223;-88
2022/10/24 03:02:50;;;;;;;18.20;8.00;;;;;;;;;;4932627;29;20216;-89
2022/10/24 03:05:18;;;;;;;15.23;7.37;;;;;;;;;;4932063;29;20235;-91
2022/10/24 03:07:53;;;;;;;20.57;8.70;;;7.90;99.90;;;;;;4940669;29;20196;-93
2022/10/24 03:10:22;;;;;;;16.30;6.77;;;7.90;99.90;;;;;;4940985;29;20187;-92
2022/10/24 03:12:48;;;;;;;16.80;8.23;;;;;;;;;;4916939;29;20610;-89
2022/10/24 03:15:14;;;;;;;16.33;7.93;;;;;;;;;;4919020;29;20188;-88
2022/10/24 03:17:41;;;;;;;15.03;7.40;;;;;;;;;;4917897;29;20521;-89
2022/10/24 03:20:11;;;;;;;14.70;7.93;;;7.90;99.90;;;;;;4903224;29;20185;-89
2022/10/24 03:22:44;;;;;;;17.73;8.63;;;8.50;99.90;;;;;;4905629;29;20212;-88
2022/10/24 03:25:12;;;;;;;16.33;7.93;;;;;;;;;;4929472;29;20197;-90
2022/10/24 03:27:39;;;;;;;17.97;7.53;;;7.90;99.90;;;;;;4918317;29;20181;-89
2022/10/24 03:30:17;;;;;;;13.00;7.83;;;8.10;99.90;;;;;;4924761;29;20196;-89
2022/10/24 03:32:46;;;;;;;13.60;7.33;;;7.90;99.90;;;;;;4939749;29;20252;-88
2022/10/24 03:35:23;;;;;;;;;;;;;;;;;;;;;
2022/10/24 03:37:50;;;;;;;14.37;7.23;;;;;;;;;;4918958;29;20622;-88
2022/10/24 03:40:16;;;;;;;17.30;7.67;;;;;;;;;;4918318;29;20680;-91
2022/10/24 03:42:49;;;;;;;12.00;6.90;;;;;;;;;;4917978;29;20232;-89
2022/10/24 03:45:16;;;;;;;12.70;8.03;;;8.00;99.90;;;;;;4917065;29;20651;-91
2022/10/24 03:47:42;;;;;;;13.70;8.20;;;;;;;;;;4917400;29;20203;-89
2022/10/24 03:50:18;;;;;;;16.37;8.17;;;8.20;99.90;;;;;;4917236;29;20204;-89
2022/10/24 03:52:47;;;;;;;19.87;8.50;;;8.10;99.90;;;;;;4902944;29;20196;-88
2022/10/24 03:55:15;;;;;;;19.00;8.70;;;;;;;;;;4918090;29;20201;-89
2022/10/24 03:57:43;;;;;;;15.33;8.47;;;;;;;;;;4917010;29;20188;-89
2022/10/24 04:00:19;;;;;;;;;;;;;;;;;;;;;
2022/10/24 04:02:50;;;;;;;12.13;7.30;;;8.20;99.90;;;;;;4918278;29;20211;-89
2022/10/24 04:05:23;;;;;;;13.93;8.03;;;8.20;99.90;;;;;;4918289;29;20263;-88
2022/10/24 04:07:49;;;;;;;15.00;6.67;;;;;;;;;;4902024;29;20201;-90
2022/10/24 04:10:22;;;;;;;15.77;7.83;;;8.30;99.90;;;;;;4917260;29;20208;-89
2022/10/24 04:12:59;;;;;;;12.20;6.97;;;;;;;;;;4916102;29;20185;-89
2022/10/24 04:15:33;;;;;;;14.10;7.87;;;;;;;;;;4917950;29;20538;-89
2022/10/24 04:18:10;;;;;;;;;;;;;;;;;;;;;
2022/10/24 04:20:43;;;;;;;18.00;8.27;;;8.50;99.90;;;;;;4918181;29;20177;-89
2022/10/24 04:23:23;;;;;;;17.03;8.27;;;8.50;99.90;;;;;;4901167;29;20634;-89
2022/10/24 04:25:49;;;;;;;12.90;7.43;;;;;;;;;;4917395;29;20622;-89
2022/10/24 04:28:30;;;;;;;;;;;;;;;;;;;;;
2022/10/24 04:30:57;;;;;;;10.67;6.97;;;;;;;;;;4918037;29;20177;-89
2022/10/24 04:33:32;;;;;;;18.27;9.03;;;8.40;99.90;;;;;;4918138;29;20192;-90
2022/10/24 04:36:04;;;;;;;15.63;8.03;;;8.70;99.90;;;;;;4902096;29;20267;-89
2022/10/24 04:38:30;;;;;;;15.63;7.13;;;;;;;;;;4916271;29;20184;-90
2022/10/24 04:41:04;;;;;;;18.73;8.37;;;8.40;99.90;;;;;;4917076;29;20236;-89
2022/10/24 04:43:32;;;;;;;16.07;9.77;;;;;;;;;;4899704;29;20681;-90
2022/10/24 04:46:03;;;;;;;18.67;8.67;;;;;;;;;;4915833;29;20239;-90
2022/10/24 04:48:29;;;;;;;20.17;8.60;;;;;;;;;;4915699;29;20187;-90
2022/10/24 04:50:55;;;;;;;20.43;8.40;;;;;;;;;;4915952;29;20181;-87
2022/10/24 04:53:22;;;;;;;14.70;8.10;;;;;;;;;;4917430;29;20184;-88
2022/10/24 04:55:49;;;;;;;19.57;9.27;;;;;;;;;;4919355;29;20184;-89
2022/10/24 04:58:15;;;;;;;20.83;9.63;;;;;;;;;;4919285;29;20189;-88
2022/10/24 05:00:45;;;;;;;22.63;9.57;;;;;;;;;;4919285;29;20236;-88
2022/10/24 05:03:11;;;;;;;12.13;7.50;;;;;;;;;;4903705;29;20224;-87
2022/10/24 05:05:38;;;;;;;16.50;8.37;;;;;;;;;;4919151;29;20319;-88
2022/10/24 05:08:04;;;;;;;19.20;8.97;;;;;;;;;;4918632;29;20180;-88
2022/10/24 05:10:30;;;;;;;21.67;8.27;;;;;;;;;;4919552;29;20183;-89
2022/10/24 05:12:58;;;;;;;17.87;8.70;;;;;;;;;;4919462;29;20199;-87
2022/10/24 05:15:24;;;;;;;16.93;8.60;;;;;;;;;;4903562;29;20271;-88
2022/10/24 05:17:52;;;;;;;16.63;8.73;;;;;;;;;;4918305;29;20177;-86
2022/10/24 05:20:18;;;;;;;16.43;9.07;;;;;;;;;;4909517;29;20288;-86
2022/10/24 05:22:44;;;;;;;17.57;8.33;;;;;;;;;;4927041;29;20220;-86
2022/10/24 05:25:10;;;;;;;16.20;8.20;;;;;;;;;;4923853;29;20292;-87
2022/10/24 05:27:41;;;;;;;18.07;8.97;;;8.70;99.90;;;;;;4919068;29;20699;-86
2022/10/24 05:30:09;;;;;;;18.00;8.93;;;8.80;99.90;;;;;;4902779;29;20192;-87
2022/10/24 05:32:35;;;;;;;15.63;8.87;;;;;;;;;;4903645;29;20559;-87
2022/10/24 05:35:01;;;;;;;21.57;9.00;;;8.80;99.90;;;;;;4905072;29;20233;-87
2022/10/24 05:37:27;;;;;;;22.83;9.03;;;;;;;;;;4902572;29;20193;-86
2022/10/24 05:39:53;;;;;;;22.20;10.30;;;8.80;99.90;;;;;;4903078;29;20185;-87
2022/10/24 05:42:19;;;;;;;15.50;8.17;;;8.80;99.90;;;;;;4902757;29;20220;-87
2022/10/24 05:44:44;;;;;;;18.93;8.97;;;8.80;99.90;;;;;;4902642;29;20263;-87
2022/10/24 05:47:12;;;;;;;16.23;8.77;;;8.90;99.90;;;;;;4902454;29;20189;-87
2022/10/24 05:49:38;;;;;;;18.20;9.20;;;8.80;99.90;;;;;;4918453;29;20277;-88
2022/10/24 05:52:11;;;;;;;15.77;9.27;;;8.90;99.90;;;;;;4902825;29;20220;-87
2022/10/24 05:54:36;;;;;;;21.63;8.87;;;9.00;99.90;;;;;;4918593;29;20661;-87
2022/10/24 05:57:04;;;;;;;19.77;8.97;;;9.10;99.90;;;;;;4903216;29;20181;-89
2022/10/24 05:59:42;;;;;;;21.70;10.50;;;9.40;99.90;;;;;;4903022;29;20196;-87
2022/10/24 06:02:20;;;;;;;19.03;10.13;;;9.10;99.90;;;;;;4907410;29;20263;-88
2022/10/24 06:04:47;;;;;;;20.53;9.90;;;9.30;99.90;;;;;;4918354;29;20288;-89
2022/10/24 06:07:13;;;;;;;15.70;8.90;;;9.40;99.90;;;;;;4902852;29;20196;-86
2022/10/24 06:09:40;;;;;;;17.60;8.97;;;9.40;99.90;;;;;;4918987;29;20188;-86
2022/10/24 06:12:08;;;;;;;17.07;8.60;;;9.40;99.90;;;;;;4918139;29;20251;-87
2022/10/24 06:14:37;;;;;;;19.50;9.10;;;;;;;;;;4918321;29;20638;-86
2022/10/24 06:17:14;;;;;;;;;;;;;;;;;;;;;
2022/10/24 06:19:51;;;;;;;;;;;;;;;;;;;;;
2022/10/24 06:22:31;;;;;;;19.37;9.10;;;9.60;99.90;;;;;;4918833;29;20208;-89
2022/10/24 06:24:58;;;;;;;16.67;8.93;;;9.80;99.90;;;;;;4904341;29;20192;-89
2022/10/24 06:27:24;;;;;;;19.30;9.57;;;10.10;99.90;;;;;;4902113;29;20192;-88
2022/10/24 06:29:51;;;;;;;21.30;10.43;;;10.00;99.90;;;;;;4917693;29;20216;-89
2022/10/24 06:32:23;;;;;;;15.80;7.63;;;9.80;99.90;;;;;;4917480;29;20267;-88
2022/10/24 06:34:49;;;;;;;16.97;8.47;;;9.90;99.90;;;;;;4902724;29;20200;-88
2022/10/24 06:37:18;;;;;;;16.57;7.83;;;9.90;99.90;;;;;;4918434;29;20192;-87
2022/10/24 06:39:44;;;;;;;15.93;8.43;;;;;;;;;;4917213;29;20213;-88
2022/10/24 06:42:12;;;;;;;19.07;8.00;;;10.10;99.90;;;;;;4917041;29;20665;-88
2022/10/24 06:44:41;;;;;;;17.13;8.20;;;10.20;99.90;;;;;;4901562;29;20335;-87
2022/10/24 06:47:07;;;;;;;16.13;7.35;;;10.20;99.90;;;;;;4900759;29;20200;-87
2022/10/24 06:49:33;;;;;;;18.90;7.83;;;10.40;99.90;;;;;;4901317;29;20697;-87
2022/10/24 06:51:59;;;;;;;17.13;8.40;;;10.40;99.90;;;;;;4916782;29;20280;-87
2022/10/24 06:54:25;;;;;;;15.60;8.13;;;;;;;;;;4901081;29;20189;-87
2022/10/24 06:56:52;;;;;;;16.03;7.50;;;10.50;99.90;;;;;;4900870;29;20195;-87
2022/10/24 06:59:21;;;;;;;21.80;8.53;;;10.50;99.90;;;;;;4916492;29;20228;-88
2022/10/24 07:01:49;;;;;;;17.10;7.90;;;10.60;99.90;;;;;;4916346;29;20212;-87
2022/10/24 07:04:20;;;;;;;18.23;9.07;;;10.90;99.90;;;;;;4916783;29;20275;-88
2022/10/24 07:06:54;;;;;;;21.77;8.40;;;9.90;99.90;;;;;;4886240;29;20188;-89
2022/10/24 07:09:30;;;;;;;11.57;6.87;;;10.60;99.90;;;;;;4916827;29;20185;-90
2022/10/24 07:11:58;;;;;;;13.90;6.97;;;10.60;99.90;;;;;;4901667;29;20594;-86
2022/10/24 07:14:24;;;;;;;19.40;7.57;;;10.80;99.90;;;;;;4916746;29;20224;-88
2022/10/24 07:16:53;;;;;;;16.75;7.20;;;10.70;99.90;;;;;;4916539;29;20181;-89
2022/10/24 07:19:20;;;;;;;16.98;7.72;;;9.60;99.90;;;;;;4916256;29;20184;-87
2022/10/24 07:21:52;;;;;;;19.40;8.10;;;10.80;99.90;;;;;;4901658;29;20670;-89
2022/10/24 07:24:20;;;;;;;14.25;7.75;;;10.80;99.90;;;;;;4917228;29;20635;-87
2022/10/24 07:26:46;;;;;;;17.77;8.32;;;10.90;99.90;;;;;;4916434;29;20554;-87
2022/10/24 07:29:13;;;;;;;15.52;8.18;;;11.00;99.90;;;;;;4900035;29;20185;-88
2022/10/24 07:31:41;;;;;;;18.55;7.32;;;11.00;99.90;;;;;;4897325;29;20196;-87
2022/10/24 07:34:10;;;;;;;13.80;7.97;;;11.10;99.90;;;;;;4899243;29;20185;-88
2022/10/24 07:36:37;;;;;;;14.25;7.15;;;11.10;99.90;;;;;;4916303;29;20189;-88
2022/10/24 07:39:05;;;;;;;14.95;8.20;;;11.10;99.90;;;;;;4916439;29;20192;-89
2022/10/24 07:41:32;;;;;;;17.92;9.40;;;11.10;99.90;;;;;;4916465;29;20208;-88
2022/10/24 07:44:00;;;;;;;12.85;7.00;;;11.00;99.90;;;;;;4900787;29;20279;-88
2022/10/24 07:46:27;;;;;;;20.35;7.25;;;11.20;99.90;;;;;;4915821;29;20228;-88
2022/10/24 07:48:53;;;;;;;12.80;6.90;;;11.20;99.90;;;;;;4916620;29;20208;-89
2022/10/24 07:51:26;;;;;;;17.08;7.40;;;11.30;99.90;;;;;;4915957;29;20190;-89
2022/10/24 07:53:52;;;;;;;16.05;8.15;;;11.30;99.90;;;;;;4901248;29;20216;-89
2022/10/24 07:56:18;;;;;;;19.50;7.97;;;11.30;99.90;;;;;;4915531;29;20184;-91
2022/10/24 07:58:50;;;;;;;15.23;8.00;;;11.40;99.90;;;;;;4916360;29;20184;-88
2022/10/24 08:01:20;;;;;;;14.18;6.78;;;11.50;99.90;;;;;;4916287;29;20180;-89
2022/10/24 08:03:48;;;;;;;25.30;9.48;;;11.40;99.90;;;;;;4916463;29;20196;-88
2022/10/24 08:06:19;;;;;;;20.33;8.45;;;11.50;99.90;;;;;;4916773;29;20622;-89
2022/10/24 08:08:56;;;;;;;25.52;11.02;;;11.50;99.90;;;;;;4916686;29;20287;-89
2022/10/24 08:11:31;;;;;;;18.63;8.73;;;10.60;99.90;;;;;;4916757;29;20195;-89
2022/10/24 08:14:04;;;;;;;22.48;10.43;;;11.90;99.90;;;;;;4892608;29;20184;-90
2022/10/24 08:16:30;;;;;;;16.45;10.40;;;11.70;99.90;;;;;;4916667;29;20208;-89
2022/10/24 08:18:57;;;;;;;16.38;8.77;;;11.70;99.90;;;;;;4916115;29;20231;-89
2022/10/24 08:21:28;;;;;;;17.73;7.50;;;11.70;99.90;;;;;;4915667;29;20656;-90
2022/10/24 08:23:56;;;;;;;16.55;7.45;;;11.60;99.90;;;;;;4916025;29;20187;-89
2022/10/24 08:26:33;;;;;;;17.67;8.40;;;12.20;99.90;;;;;;4917383;29;20184;-89
2022/10/24 08:29:04;;;;;;;14.13;7.63;;;12.00;99.90;;;;;;4910714;29;20201;-89
2022/10/24 08:31:35;;;;;;;20.73;8.15;;;12.30;99.90;;;;;;4909064;29;20212;-92
2022/10/24 08:34:10;;;;;;;21.88;9.40;;;12.70;99.90;;;;;;4935368;29;20264;-89
2022/10/24 08:36:37;;;;;;;21.00;8.93;;;12.20;99.90;;;;;;4921237;29;20191;-89
2022/10/24 08:39:08;;;;;;;17.33;7.75;;;12.50;99.90;;;;;;4900502;29;20188;-89
2022/10/24 08:41:54;;;;;;;16.85;7.95;;;12.70;99.90;;;;;;4916145;29;20181;-90
2022/10/24 08:44:28;;;;;;;27.77;9.52;;;12.40;99.90;;;;;;4916322;29;20212;-89
2022/10/24 08:47:08;;;;;;;17.80;8.38;;;12.40;99.90;;;;;;4916362;29;20184;-89
2022/10/24 08:49:50;;;;;;;18.80;8.70;;;12.50;99.90;;;;;;4901476;29;20208;-90
2022/10/24 08:52:41;;;;;;;26.00;10.00;;;12.60;99.90;;;;;;4937538;29;20169;-89
2022/10/24 08:55:32;;;;;;;21.75;9.20;;;12.70;99.90;;;;;;4917995;29;20188;-88
2022/10/24 08:58:01;;;;;;;24.58;9.93;;;12.70;99.90;;;;;;4917943;29;20180;-90
2022/10/24 09:00:35;;;;;;;19.80;8.70;;;12.80;99.90;;;;;;4918460;29;20220;-92
2022/10/24 09:03:25;;;;;;;22.17;8.40;;;12.90;99.90;;;;;;4920619;29;20215;-88
2022/10/24 09:06:01;;;;;;;14.82;7.82;;;13.00;99.90;;;;;;4914039;29;20181;-88
2022/10/24 09:08:34;;;;;;;15.07;7.55;;;13.20;99.90;;;;;;4924027;29;20196;-95
2022/10/24 09:11:04;;;;;;;16.02;6.30;;;13.20;99.90;;;;;;4924900;29;20173;-89
2022/10/24 09:13:35;;;;;;;16.75;6.90;;;13.90;99.90;;;;;;4923718;29;20161;-93
2022/10/24 09:16:57;;;;;;;17.60;7.93;;;13.70;99.90;;;;;;4922984;29;20185;-89
2022/10/24 09:19:32;;;;;;;15.20;7.25;;;14.20;99.90;;;;;;4892994;29;20201;-90
2022/10/24 09:22:03;;;;;;;18.17;8.07;;;14.20;99.90;;;;;;4904258;29;20215;-90
2022/10/24 09:25:28;;;;;;;;;;;;;;;;;;;;;
2022/10/24 09:28:22;;;;;;;16.85;7.72;;;14.50;99.90;;;;;;4939302;29;20244;-95
2022/10/24 09:30:52;;;;;;;13.30;6.57;;;14.20;99.90;;;;;;4897108;29;20200;-89
2022/10/24 09:33:41;;;;;;;;;;;;;;;;;;;;;
2022/10/24 09:36:14;;;;;;;32.03;17.33;;;14.50;99.90;;;;;;4914586;29;20199;-89
2022/10/24 09:38:45;;;;;;;23.92;10.80;;;14.80;99.90;;;;;;4886964;29;20677;-90
2022/10/24 09:45:05;;;;;;;18.45;9.48;;;14.60;99.90;;;;;;4904947;29;20244;-90
2022/10/24 09:47:38;;;;;;;13.68;7.25;;;14.80;99.90;;;;;;4901792;29;20199;-90
2022/10/24 09:50:05;;;;;;;14.05;6.20;;;14.70;99.90;;;;;;4888535;29;20196;-90
2022/10/24 09:52:31;;;;;;;7.80;4.68;;;14.70;99.90;;;;;;4905353;29;20197;-90
2022/10/24 09:55:23;;;;;;;8.50;5.25;;;15.20;99.90;;;;;;4889743;29;20558;-89
2022/10/24 10:01:37;;;;;;;10.82;4.93;;;14.90;99.90;;;;;;4937692;29;20165;-88
2022/10/24 10:07:27;;;;;;;7.65;4.07;;;14.80;99.90;;;;;;4910463;29;20240;-90
2022/10/24 10:10:02;;;;;;;10.02;4.97;;;14.50;99.90;;;;;;4905100;29;20185;-90
2022/10/24 10:13:00;;;;;;;7.95;4.43;;;15.10;99.90;;;;;;4915618;29;20251;-89
2022/10/24 10:15:53;;;;;;;;;;;;;;;;;;;;;
2022/10/24 10:18:38;;;;;;;20.00;12.18;;;15.10;99.90;;;;;;4919516;29;20195;-90
2022/10/24 10:21:28;;;;;;;8.65;5.25;;;15.20;99.90;;;;;;4902338;29;20650;-89
2022/10/24 10:24:00;;;;;;;12.27;6.50;;;15.10;99.90;;;;;;4914389;29;20224;-91
2022/10/24 10:26:45;;;;;;;13.45;7.05;;;15.50;99.90;;;;;;4887754;29;20638;-90
2022/10/24 10:29:43;;;;;;;11.48;4.07;;;15.60;99.90;;;;;;4902522;29;20276;-90
2022/10/24 10:32:52;;;;;;;6.97;3.90;;;16.20;99.90;;;;;;4896557;29;20603;-89
2022/10/24 10:35:51;;;;;;;9.80;4.38;;;15.60;99.90;;;;;;4883109;29;20235;-88
2022/10/24 10:38:46;;;;;;;15.77;9.13;;;15.60;99.90;;;;;;4900127;29;20264;-89
2022/10/24 10:41:53;;;;;;;7.82;4.03;;;15.50;99.90;;;;;;4865635;29;20216;-89
2022/10/24 10:44:23;;;;;;;5.07;3.20;;;15.60;99.90;;;;;;4900304;29;20604;-88
2022/10/24 10:47:25;;;;;;;3.75;3.03;;;15.70;99.90;;;;;;4899545;29;20710;-88
2022/10/24 10:49:56;;;;;;;5.78;3.38;;;15.80;99.90;;;;;;4883867;29;20193;-88
2022/10/24 10:52:46;;;;;;;8.68;3.78;;;15.90;99.90;;;;;;4883689;29;20185;-88
2022/10/24 10:55:48;;;;;;;5.55;3.78;;;15.90;99.90;;;;;;4873212;29;20216;-90
2022/10/24 10:58:37;;;;;;;8.25;3.85;;;16.30;99.90;;;;;;4905199;29;20179;-90
2022/10/24 11:01:44;;;;;;;5.18;3.40;;;15.70;99.90;;;;;;4887128;29;20563;-89
2022/10/24 11:04:50;;;;;;;5.88;3.47;;;16.00;99.90;;;;;;4925718;29;20207;-89
2022/10/24 11:12:19;;;;;;;10.30;4.03;;;16.20;99.90;;;;;;4879182;29;20238;-89
2022/10/24 11:15:04;;;;;;;7.85;3.50;;;16.30;99.90;;;;;;4907528;29;20188;-88
2022/10/24 11:24:42;;;;;;;5.72;3.33;;;15.80;99.90;;;;;;4912887;29;20255;-90
2022/10/24 11:27:30;;;;;;;6.53;3.67;;;15.70;99.90;;;;;;4900947;29;20633;-90
2022/10/24 11:30:27;;;;;;;10.02;4.75;;;15.70;99.90;;;;;;4903651;29;20196;-89
2022/10/24 11:33:05;;;;;;;5.43;3.30;;;15.70;99.90;;;;;;4901573;29;20185;-90
2022/10/24 11:35:55;;;;;;;7.50;3.88;;;15.60;99.90;;;;;;4901349;29;20657;-90
2022/10/24 11:38:31;;;;;;;7.40;3.75;;;15.70;99.90;;;;;;4887403;29;20185;-89
2022/10/24 11:41:35;;;;;;;8.27;3.60;;;15.70;99.90;;;;;;4898183;29;20191;-91
2022/10/24 11:44:54;;;;;;;7.88;3.53;;;13.40;99.90;;;;;;4906776;29;20208;-91
2022/10/24 11:47:38;;;;;;;;;;;;;;;;;;;;;
2022/10/24 11:50:54;;;;;;;9.15;3.25;;;16.80;99.90;;;;;;4900080;29;20191;-92
2022/10/24 11:53:45;;;;;;;;;;;;;;;;;;;;;
2022/10/24 11:56:34;;;;;;;;;;;;;;;;;;;;;
2022/10/24 11:59:13;;;;;;;6.63;2.72;;;17.10;99.90;;;;;;4920021;29;20204;-91
2022/10/24 12:05:42;;;;;;;5.38;3.42;;;17.20;99.90;;;;;;4874056;29;20655;-95
2022/10/24 12:08:27;;;;;;;6.05;3.40;;;17.20;99.90;;;;;;4882597;29;20295;-91
2022/10/24 12:11:07;;;;;;;6.25;3.47;;;17.20;99.90;;;;;;4882364;29;20283;-92
2022/10/24 12:14:15;;;;;;;6.18;3.78;;;15.60;99.90;;;;;;4898441;29;20214;-91
2022/10/24 12:17:24;;;;;;;;;;;;;;;;;;;;;
2022/10/24 12:20:24;;;;;;;;;;;;;;;;;;;;;
2022/10/24 12:22:56;;;;;;;4.70;2.90;;;16.50;99.90;;;;;;4898510;29;20209;-92
2022/10/24 12:26:36;;;;;;;;;;;;;;;;;;;;;
2022/10/24 12:29:37;;;;;;;;;;;;;;;;;;;;;
2022/10/24 12:32:47;;;;;;;6.65;3.15;;;17.00;99.90;;;;;;4883623;29;20177;-91
2022/10/24 12:36:02;;;;;;;;;;;;;;;;;;;;;
2022/10/24 12:45:10;;;;;;;;;;;;;;;;;;;;;
2022/10/24 12:48:02;;;;;;;;;;;;;;;;;;;;;
2022/10/24 12:50:49;;;;;;;;;;;;;;;;;;;;;
2022/10/24 12:53:33;;;;;;;9.57;3.95;;;16.00;99.90;;;;;;4918341;29;20200;-93
2022/10/24 12:56:04;;;;;;;4.90;2.63;;;16.60;99.90;;;;;;4908189;29;20244;-92
2022/10/24 12:58:37;;;;;;;10.90;4.25;;;16.50;99.90;;;;;;4900315;29;20184;-90
2022/10/24 13:01:07;;;;;;;6.55;3.10;;;16.80;99.90;;;;;;4885323;29;20192;-93
2022/10/24 13:03:54;;;;;;;4.68;3.45;;;16.90;99.90;;;;;;4884491;29;20311;-91
2022/10/24 13:06:29;;;;;;;7.60;3.38;;;17.40;99.90;;;;;;4900617;29;20224;-90
2022/10/24 13:09:34;;;;;;;7.45;4.05;;;18.30;99.90;;;;;;4918104;29;20179;-92
2022/10/24 13:12:39;;;;;;;5.60;3.72;;;16.50;99.90;;;;;;4918942;29;20181;-91
2022/10/24 13:15:17;;;;;;;9.13;3.97;;;17.50;99.90;;;;;;4904207;29;20191;-91
2022/10/24 13:18:14;;;;;;;5.63;3.65;;;17.50;99.90;;;;;;4904737;29;20180;-92
2022/10/24 13:20:43;;;;;;;7.55;3.75;;;16.20;99.90;;;;;;4903785;29;20223;-91
2022/10/24 13:23:23;;;;;;;9.88;3.97;;;19.10;99.90;;;;;;4886193;29;20221;-90
2022/10/24 13:25:58;;;;;;;8.15;4.07;;;19.40;99.90;;;;;;4904169;29;20234;-91
2022/10/24 13:28:54;;;;;;;;;;;;;;;;;;;;;
2022/10/24 13:31:59;;;;;;;8.95;3.80;;;19.70;99.90;;;;;;4914928;29;20203;-90
2022/10/24 13:34:45;;;;;;;6.20;3.63;;;20.40;99.90;;;;;;4898453;29;20240;-90
2022/10/24 13:37:55;;;;;;;;;;;;;;;;;;;;;
2022/10/24 13:41:08;;;;;;;10.55;4.38;;;20.20;99.90;;;;;;4920210;29;20630;-90
2022/10/24 13:43:51;;;;;;;4.78;3.58;;;20.30;99.90;;;;;;4920635;29;20232;-89
2022/10/24 13:47:28;;;;;;;8.18;3.80;;;20.20;99.90;;;;;;4911845;29;20697;-90
2022/10/24 13:50:30;;;;;;;7.93;3.80;;;19.80;99.90;;;;;;4846142;29;20189;-90
2022/10/24 13:53:26;;;;;;;5.50;3.42;;;19.80;99.90;;;;;;4849108;29;20200;-90
2022/10/24 13:56:13;;;;;;;;;;;;;;;;;;;;;
2022/10/24 13:58:50;;;;;;;8.63;3.88;;;17.90;99.90;;;;;;4916510;29;20564;-90
2022/10/24 14:01:37;;;;;;;;;;;;;;;;;;;;;
2022/10/24 14:04:35;;;;;;;4.63;2.85;;;17.70;99.90;;;;;;4925014;29;20713;-93
2022/10/24 14:07:17;;;;;;;7.25;3.38;;;17.20;99.90;;;;;;4906640;29;20185;-91
2022/10/24 14:12:50;;;;;;;;;;;;;;;;;;;;;
2022/10/24 14:15:58;;;;;;;;;;;;;;;;;;;;;
2022/10/24 14:18:46;;;;;;;9.38;3.92;;;16.60;99.90;;;;;;4923949;29;20257;-92
2022/10/24 14:22:04;;;;;;;6.65;3.95;;;16.50;99.90;;;;;;4920501;29;20200;-90
2022/10/24 14:24:52;;;;;;;6.53;4.07;;;16.80;99.90;;;;;;4866913;29;20294;-92
2022/10/24 14:27:45;;;;;;;8.95;4.28;;;16.70;99.90;;;;;;4868900;29;20189;-92
2022/10/24 14:33:49;;;;;;;10.63;4.47;;;16.40;99.90;;;;;;4867593;29;20193;-91
2022/10/24 14:37:07;;;;;;;8.25;3.40;;;16.70;99.90;;;;;;4881054;29;20269;-91
2022/10/24 14:40:19;;;;;;;;;;;;;;;;;;;;;
2022/10/24 14:43:32;;;;;;;;;;;;;;;;;;;;;
2022/10/24 14:47:06;;;;;;;;;;;;;;;;;;;;;
2022/10/24 14:49:42;;;;;;;8.77;4.53;;;16.20;99.90;;;;;;4880524;29;20769;-89
2022/10/24 14:52:41;;;;;;;10.02;4.57;;;17.90;99.90;;;;;;4872158;29;20193;-89
2022/10/24 14:55:48;;;;;;;;;;;;;;;;;;;;;
2022/10/24 15:02:18;;;;;;;;;;;;;;;;;;;;;
2022/10/24 15:04:46;;;;;;;8.07;4.30;;;15.50;99.90;;;;;;4908050;29;20288;-90
2022/10/24 15:07:40;;;;;;;11.48;4.45;;;15.60;99.90;;;;;;4920431;29;20196;-91
2022/10/24 15:16:48;;;;;;;;;;;;;;;;;;;;;
2022/10/24 15:20:13;;;;;;;;;;;;;;;;;;;;;
2022/10/24 15:22:52;;;;;;;5.57;3.67;;;15.40;99.90;;;;;;4829765;29;20255;-87
2022/10/24 15:25:34;;;;;;;11.88;4.00;;;14.80;99.90;;;;;;4829762;29;20169;-90